sensor_id;sensor_type;location;lat;lon;timestamp;pressure;altitude;pressure_sealevel;temperature;humidity
26112;BME280;13829;48.990;8.346;2022-09-02T00:01:20;100436.38;;;17.39;81.44
26112;BME280;13829;48.990;8.346;2022-09-02T00:03:49;100437.19;;;17.43;81.24
26112;BME280;13829;48.990;8.346;2022-09-02T00:06:17;100432.84;;;17.37;81.68
26112;BME280;13829;48.990;8.346;2022-09-02T00:08:45;100425.88;;;17.33;81.74
26112;BME280;13829;48.990;8.346;2022-09-02T00:11:16;100430.28;;;17.34;81.79
26112;BME280;13829;48.990;8.346;2022-09-02T00:13:45;100429.50;;;17.29;82.20
26112;BME280;13829;48.990;8.346;2022-09-02T00:16:13;100430.97;;;17.42;81.44
26112;BME280;13829;48.990;8.346;2022-09-02T00:18:42;100431.13;;;17.35;81.62
26112;BME280;13829;48.990;8.346;2022-09-02T00:21:09;100428.44;;;17.36;81.69
26112;BME280;13829;48.990;8.346;2022-09-02T00:23:37;100423.38;;;17.24;82.29
26112;BME280;13829;48.990;8.346;2022-09-02T00:26:04;100423.38;;;17.25;82.55
26112;BME280;13829;48.990;8.346;2022-09-02T00:28:31;100419.19;;;17.14;82.83
26112;BME280;13829;48.990;8.346;2022-09-02T00:31:00;100412.75;;;17.25;82.10
26112;BME280;13829;48.990;8.346;2022-09-02T00:33:27;100412.81;;;17.22;82.36
26112;BME280;13829;48.990;8.346;2022-09-02T00:35:58;100420.72;;;17.25;82.08
26112;BME280;13829;48.990;8.346;2022-09-02T00:38:26;100417.59;;;17.06;83.61
26112;BME280;13829;48.990;8.346;2022-09-02T00:40:53;100418.63;;;16.99;83.92
26112;BME280;13829;48.990;8.346;2022-09-02T00:43:36;100415.06;;;17.00;83.76
26112;BME280;13829;48.990;8.346;2022-09-02T00:46:05;100417.75;;;16.99;83.99
26112;BME280;13829;48.990;8.346;2022-09-02T00:48:34;100414.22;;;16.98;84.11
26112;BME280;13829;48.990;8.346;2022-09-02T00:51:03;100417.84;;;16.94;84.36
26112;BME280;13829;48.990;8.346;2022-09-02T00:53:31;100413.41;;;16.94;84.15
26112;BME280;13829;48.990;8.346;2022-09-02T00:56:00;100411.59;;;16.97;84.02
26112;BME280;13829;48.990;8.346;2022-09-02T00:58:33;100411.78;;;16.87;84.58
26112;BME280;13829;48.990;8.346;2022-09-02T01:01:02;100419.84;;;16.83;84.87
26112;BME280;13829;48.990;8.346;2022-09-02T01:03:32;100418.84;;;16.87;84.69
26112;BME280;13829;48.990;8.346;2022-09-02T01:05:59;100420.06;;;16.70;85.77
26112;BME280;13829;48.990;8.346;2022-09-02T01:08:33;100411.09;;;16.77;85.27
26112;BME280;13829;48.990;8.346;2022-09-02T01:11:03;100416.44;;;16.74;85.89
26112;BME280;13829;48.990;8.346;2022-09-02T01:13:37;100413.66;;;16.80;85.18
26112;BME280;13829;48.990;8.346;2022-09-02T01:16:11;100413.78;;;16.74;85.53
26112;BME280;13829;48.990;8.346;2022-09-02T01:18:45;100413.91;;;16.68;85.94
26112;BME280;13829;48.990;8.346;2022-09-02T01:21:13;100410.38;;;16.68;86.38
26112;BME280;13829;48.990;8.346;2022-09-02T01:23:42;100419.94;;;16.76;85.66
26112;BME280;13829;48.990;8.346;2022-09-02T01:26:09;100420.06;;;16.70;86.39
26112;BME280;13829;48.990;8.346;2022-09-02T01:28:36;100418.44;;;16.63;87.02
26112;BME280;13829;48.990;8.346;2022-09-02T01:31:04;100429.06;;;16.63;87.19
26112;BME280;13829;48.990;8.346;2022-09-02T01:33:31;100429.13;;;16.60;87.60
26112;BME280;13829;48.990;8.346;2022-09-02T01:35:59;100420.34;;;16.56;87.61
26112;BME280;13829;48.990;8.346;2022-09-02T01:38:27;100422.19;;;16.53;88.39
26112;BME280;13829;48.990;8.346;2022-09-02T01:40:56;100421.34;;;16.51;88.48
26112;BME280;13829;48.990;8.346;2022-09-02T01:43:26;100410.75;;;16.51;88.30
26112;BME280;13829;48.990;8.346;2022-09-02T01:45:57;100402.88;;;16.44;89.54
26112;BME280;13829;48.990;8.346;2022-09-02T01:48:25;100407.19;;;16.50;88.15
26112;BME280;13829;48.990;8.346;2022-09-02T01:50:56;100408.19;;;16.44;89.44
26112;BME280;13829;48.990;8.346;2022-09-02T01:53:23;100406.47;;;16.40;89.89
26112;BME280;13829;48.990;8.346;2022-09-02T01:55:50;100405.63;;;16.40;89.91
26112;BME280;13829;48.990;8.346;2022-09-02T01:58:19;100411.81;;;16.39;90.41
26112;BME280;13829;48.990;8.346;2022-09-02T02:00:46;100413.63;;;16.38;90.96
26112;BME280;13829;48.990;8.346;2022-09-02T02:03:14;100412.03;;;16.28;91.58
26112;BME280;13829;48.990;8.346;2022-09-02T02:05:41;100414.91;;;16.16;94.48
26112;BME280;13829;48.990;8.346;2022-09-02T02:08:09;100409.75;;;16.08;95.74
26112;BME280;13829;48.990;8.346;2022-09-02T02:10:39;100410.94;;;15.90;98.65
26112;BME280;13829;48.990;8.346;2022-09-02T02:13:06;100413.66;;;15.85;99.90
26112;BME280;13829;48.990;8.346;2022-09-02T02:15:36;100408.44;;;15.79;99.21
26112;BME280;13829;48.990;8.346;2022-09-02T02:18:03;100403.22;;;15.73;99.23
26112;BME280;13829;48.990;8.346;2022-09-02T02:20:30;100404.91;;;15.77;98.69
26112;BME280;13829;48.990;8.346;2022-09-02T02:22:58;100404.06;;;15.76;99.20
26112;BME280;13829;48.990;8.346;2022-09-02T02:25:25;100407.19;;;16.02;97.20
26112;BME280;13829;48.990;8.346;2022-09-02T02:27:52;100403.06;;;15.85;98.10
26112;BME280;13829;48.990;8.346;2022-09-02T02:30:20;100397.91;;;15.74;100.00
26112;BME280;13829;48.990;8.346;2022-09-02T02:32:48;100393.72;;;15.61;100.00
26112;BME280;13829;48.990;8.346;2022-09-02T02:35:17;100400.59;;;15.71;100.00
26112;BME280;13829;48.990;8.346;2022-09-02T02:37:46;100396.13;;;15.75;99.63
26112;BME280;13829;48.990;8.346;2022-09-02T02:40:17;100400.50;;;15.77;99.19
26112;BME280;13829;48.990;8.346;2022-09-02T02:42:45;100395.34;;;15.68;100.00
26112;BME280;13829;48.990;8.346;2022-09-02T02:45:13;100395.47;;;15.62;99.58
26112;BME280;13829;48.990;8.346;2022-09-02T02:47:41;100392.63;;;15.73;98.58
26112;BME280;13829;48.990;8.346;2022-09-02T02:50:15;100390.72;;;15.81;97.31
26112;BME280;13829;48.990;8.346;2022-09-02T02:52:43;100395.13;;;15.80;96.82
26112;BME280;13829;48.990;8.346;2022-09-02T02:55:12;100392.38;;;15.90;96.15
26112;BME280;13829;48.990;8.346;2022-09-02T02:57:41;100391.66;;;15.78;97.91
26112;BME280;13829;48.990;8.346;2022-09-02T03:00:12;100398.88;;;15.69;99.00
26112;BME280;13829;48.990;8.346;2022-09-02T03:02:41;100399.94;;;15.58;99.76
26112;BME280;13829;48.990;8.346;2022-09-02T03:05:12;100396.47;;;15.52;100.00
26112;BME280;13829;48.990;8.346;2022-09-02T03:07:40;100391.34;;;15.42;100.00
26112;BME280;13829;48.990;8.346;2022-09-02T03:10:09;100396.63;;;15.42;100.00
26112;BME280;13829;48.990;8.346;2022-09-02T03:12:38;100387.84;;;15.39;100.00
26112;BME280;13829;48.990;8.346;2022-09-02T03:15:08;100391.41;;;15.36;100.00
26112;BME280;13829;48.990;8.346;2022-09-02T03:17:36;100385.28;;;15.34;100.00
26112;BME280;13829;48.990;8.346;2022-09-02T03:20:05;100383.47;;;15.36;100.00
26112;BME280;13829;48.990;8.346;2022-09-02T03:22:35;100388.84;;;15.30;100.00
26112;BME280;13829;48.990;8.346;2022-09-02T03:25:04;100383.59;;;15.28;100.00
26112;BME280;13829;48.990;8.346;2022-09-02T03:27:32;100380.88;;;15.33;100.00
26112;BME280;13829;48.990;8.346;2022-09-02T03:30:00;100380.81;;;15.36;100.00
26112;BME280;13829;48.990;8.346;2022-09-02T03:32:27;100382.69;;;15.29;100.00
26112;BME280;13829;48.990;8.346;2022-09-02T03:34:54;100385.13;;;15.43;100.00
26112;BME280;13829;48.990;8.346;2022-09-02T03:37:21;100397.53;;;15.41;100.00
26112;BME280;13829;48.990;8.346;2022-09-02T03:39:49;100385.16;;;15.40;100.00
26112;BME280;13829;48.990;8.346;2022-09-02T03:42:16;100392.13;;;15.47;98.81
26112;BME280;13829;48.990;8.346;2022-09-02T03:44:43;100388.88;;;15.88;95.36
26112;BME280;13829;48.990;8.346;2022-09-02T03:47:10;100389.88;;;15.79;95.60
26112;BME280;13829;48.990;8.346;2022-09-02T03:49:39;100385.63;;;15.69;95.15
26112;BME280;13829;48.990;8.346;2022-09-02T03:52:06;100390.03;;;15.70;94.89
26112;BME280;13829;48.990;8.346;2022-09-02T03:54:33;100392.81;;;15.60;95.29
26112;BME280;13829;48.990;8.346;2022-09-02T03:57:01;100388.59;;;15.48;96.05
26112;BME280;13829;48.990;8.346;2022-09-02T03:59:28;100394.88;;;15.43;96.31
26112;BME280;13829;48.990;8.346;2022-09-02T04:01:55;100392.00;;;15.57;95.13
26112;BME280;13829;48.990;8.346;2022-09-02T04:04:22;100395.56;;;15.56;95.22
26112;BME280;13829;48.990;8.346;2022-09-02T04:06:50;100396.59;;;15.45;96.10
26112;BME280;13829;48.990;8.346;2022-09-02T04:09:17;100393.25;;;15.34;96.02
26112;BME280;13829;48.990;8.346;2022-09-02T04:11:44;100392.00;;;15.57;93.93
26112;BME280;13829;48.990;8.346;2022-09-02T04:14:12;100395.81;;;15.37;95.44
26112;BME280;13829;48.990;8.346;2022-09-02T04:21:10;100388.06;;;15.25;96.75
26112;BME280;13829;48.990;8.346;2022-09-02T04:23:38;100385.38;;;15.28;97.24
26112;BME280;13829;48.990;8.346;2022-09-02T04:26:09;100383.38;;;15.42;94.68
26112;BME280;13829;48.990;8.346;2022-09-02T04:28:36;100385.19;;;15.39;95.00
26112;BME280;13829;48.990;8.346;2022-09-02T04:31:06;100383.56;;;15.30;95.66
26112;BME280;13829;48.990;8.346;2022-09-02T04:33:35;100383.75;;;15.18;96.59
26112;BME280;13829;48.990;8.346;2022-09-02T04:36:04;100381.28;;;15.05;97.97
26112;BME280;13829;48.990;8.346;2022-09-02T04:38:33;100381.31;;;15.04;97.66
26112;BME280;13829;48.990;8.346;2022-09-02T04:41:05;100378.63;;;15.05;97.86
26112;BME280;13829;48.990;8.346;2022-09-02T04:43:32;100385.38;;;15.28;95.63
26112;BME280;13829;48.990;8.346;2022-09-02T04:45:59;100396.09;;;15.19;96.62
26112;BME280;13829;48.990;8.346;2022-09-02T04:48:27;100382.81;;;15.22;95.44
26112;BME280;13829;48.990;8.346;2022-09-02T04:50:55;100379.31;;;15.20;95.30
26112;BME280;13829;48.990;8.346;2022-09-02T04:53:22;100392.59;;;15.16;96.35
26112;BME280;13829;48.990;8.346;2022-09-02T04:55:49;100385.56;;;15.12;96.16
26112;BME280;13829;48.990;8.346;2022-09-02T04:58:16;100390.06;;;15.09;96.75
26112;BME280;13829;48.990;8.346;2022-09-02T05:00:43;100388.28;;;15.09;96.75
26112;BME280;13829;48.990;8.346;2022-09-02T05:03:11;100381.31;;;15.04;97.83
26112;BME280;13829;48.990;8.346;2022-09-02T05:05:39;100380.34;;;15.09;96.67
26112;BME280;13829;48.990;8.346;2022-09-02T05:08:06;100377.69;;;15.09;96.42
26112;BME280;13829;48.990;8.346;2022-09-02T05:10:34;100377.84;;;14.97;97.70
26112;BME280;13829;48.990;8.346;2022-09-02T05:13:02;100381.19;;;15.10;96.86
26112;BME280;13829;48.990;8.346;2022-09-02T05:15:29;100382.13;;;15.09;97.45
26112;BME280;13829;48.990;8.346;2022-09-02T05:17:56;100376.00;;;15.02;97.89
26112;BME280;13829;48.990;8.346;2022-09-02T05:20:24;100380.34;;;15.09;96.83
26112;BME280;13829;48.990;8.346;2022-09-02T05:22:54;100372.25;;;15.19;96.84
26112;BME280;13829;48.990;8.346;2022-09-02T05:25:21;100378.56;;;15.11;97.17
26112;BME280;13829;48.990;8.346;2022-09-02T05:27:49;100381.94;;;15.20;97.62
26112;BME280;13829;48.990;8.346;2022-09-02T05:30:16;100378.44;;;15.19;99.15
26112;BME280;13829;48.990;8.346;2022-09-02T05:32:43;100385.28;;;15.34;98.83
26112;BME280;13829;48.990;8.346;2022-09-02T05:35:11;100388.91;;;15.27;98.53
26112;BME280;13829;48.990;8.346;2022-09-02T05:37:38;100386.94;;;15.41;97.72
26112;BME280;13829;48.990;8.346;2022-09-02T05:40:08;100391.41;;;15.38;98.79
26112;BME280;13829;48.990;8.346;2022-09-02T05:42:37;100390.38;;;15.46;99.20
26112;BME280;13829;48.990;8.346;2022-09-02T05:45:05;100393.88;;;15.50;97.79
26112;BME280;13829;48.990;8.346;2022-09-02T05:47:34;100397.16;;;15.66;95.62
26112;BME280;13829;48.990;8.346;2022-09-02T05:50:01;100391.84;;;15.66;93.09
26112;BME280;13829;48.990;8.346;2022-09-02T05:52:28;100391.66;;;15.78;90.86
26112;BME280;13829;48.990;8.346;2022-09-02T05:54:56;100393.16;;;15.96;89.83
26112;BME280;13829;48.990;8.346;2022-09-02T05:57:24;100389.47;;;16.05;86.58
26112;BME280;13829;48.990;8.346;2022-09-02T05:59:52;100397.41;;;16.05;88.43
26112;BME280;13829;48.990;8.346;2022-09-02T06:02:23;100390.31;;;16.06;89.64
26112;BME280;13829;48.990;8.346;2022-09-02T06:04:52;100394.28;;;16.30;84.28
26112;BME280;13829;48.990;8.346;2022-09-02T06:07:22;100390.63;;;16.37;82.82
26112;BME280;13829;48.990;8.346;2022-09-02T06:09:51;100388.78;;;16.41;83.03
26112;BME280;13829;48.990;8.346;2022-09-02T06:12:19;100391.50;;;16.39;81.32
26112;BME280;13829;48.990;8.346;2022-09-02T06:14:49;100386.88;;;16.47;80.00
26112;BME280;13829;48.990;8.346;2022-09-02T06:17:16;100388.66;;;16.49;79.97
26112;BME280;13829;48.990;8.346;2022-09-02T06:19:43;100382.41;;;16.51;78.58
26112;BME280;13829;48.990;8.346;2022-09-02T06:22:10;100385.94;;;16.50;77.99
26112;BME280;13829;48.990;8.346;2022-09-02T06:24:37;100384.84;;;16.62;78.02
26112;BME280;13829;48.990;8.346;2022-09-02T06:27:04;100382.03;;;16.70;77.64
26112;BME280;13829;48.990;8.346;2022-09-02T06:29:32;100384.66;;;16.71;76.97
26112;BME280;13829;48.990;8.346;2022-09-02T06:32:01;100385.38;;;16.78;76.43
26112;BME280;13829;48.990;8.346;2022-09-02T06:34:28;100375.44;;;16.88;76.11
26112;BME280;13829;48.990;8.346;2022-09-02T06:36:55;100378.97;;;16.88;75.46
26112;BME280;13829;48.990;8.346;2022-09-02T06:39:24;100373.53;;;16.96;76.03
26112;BME280;13829;48.990;8.346;2022-09-02T06:41:51;100376.53;;;17.20;75.50
26112;BME280;13829;48.990;8.346;2022-09-02T06:44:19;100384.31;;;17.29;73.82
26112;BME280;13829;48.990;8.346;2022-09-02T06:46:54;100385.47;;;17.91;71.88
26112;BME280;13829;48.990;8.346;2022-09-02T06:49:25;100366.53;;;19.28;65.38
26112;BME280;13829;48.990;8.346;2022-09-02T06:51:54;100366.06;;;20.73;58.51
26112;BME280;13829;48.990;8.346;2022-09-02T06:54:23;100363.59;;;21.58;54.93
26112;BME280;13829;48.990;8.346;2022-09-02T06:56:51;100364.81;;;22.14;52.72
26112;BME280;13829;48.990;8.346;2022-09-02T06:59:19;100358.63;;;23.67;48.94
26112;BME280;13829;48.990;8.346;2022-09-02T07:01:48;100363.06;;;24.20;46.34
26112;BME280;13829;48.990;8.346;2022-09-02T07:04:15;100355.13;;;25.02;43.87
26112;BME280;13829;48.990;8.346;2022-09-02T07:07:05;100356.81;;;25.67;42.16
26112;BME280;13829;48.990;8.346;2022-09-02T07:09:33;100354.97;;;26.14;40.19
26112;BME280;13829;48.990;8.346;2022-09-02T07:12:02;100353.38;;;27.53;39.03
26112;BME280;13829;48.990;8.346;2022-09-02T07:14:29;100353.34;;;27.80;36.93
26112;BME280;13829;48.990;8.346;2022-09-02T07:16:57;100353.66;;;28.41;35.59
26112;BME280;13829;48.990;8.346;2022-09-02T07:19:24;100348.94;;;29.32;35.30
26112;BME280;13829;48.990;8.346;2022-09-02T07:21:51;100353.50;;;27.91;35.82
26112;BME280;13829;48.990;8.346;2022-09-02T07:24:21;100349.84;;;27.65;36.80
26112;BME280;13829;48.990;8.346;2022-09-02T07:26:49;100347.63;;;27.44;36.69
26112;BME280;13829;48.990;8.346;2022-09-02T07:29:17;100350.28;;;27.17;37.07
26112;BME280;13829;48.990;8.346;2022-09-02T07:31:47;100354.47;;;27.35;36.81
26112;BME280;13829;48.990;8.346;2022-09-02T07:34:16;100350.31;;;27.72;36.71
26112;BME280;13829;48.990;8.346;2022-09-02T07:36:44;100352.78;;;26.78;37.76
26112;BME280;13829;48.990;8.346;2022-09-02T07:39:13;100352.63;;;27.50;36.57
26112;BME280;13829;48.990;8.346;2022-09-02T07:41:44;100345.53;;;27.62;37.08
26112;BME280;13829;48.990;8.346;2022-09-02T07:44:13;100345.81;;;27.30;37.27
26112;BME280;13829;48.990;8.346;2022-09-02T07:46:40;100355.78;;;26.88;37.23
26112;BME280;13829;48.990;8.346;2022-09-02T07:49:11;100353.69;;;26.19;39.11
26112;BME280;13829;48.990;8.346;2022-09-02T07:51:43;100357.44;;;25.86;40.01
26112;BME280;13829;48.990;8.346;2022-09-02T07:54:11;100361.50;;;26.24;39.01
26112;BME280;13829;48.990;8.346;2022-09-02T07:56:40;100348.31;;;27.06;38.79
26112;BME280;13829;48.990;8.346;2022-09-02T07:59:08;100353.59;;;27.90;38.38
26112;BME280;13829;48.990;8.346;2022-09-02T08:01:36;100358.94;;;26.95;37.72
26112;BME280;13829;48.990;8.346;2022-09-02T08:04:04;100352.28;;;27.28;36.85
26112;BME280;13829;48.990;8.346;2022-09-02T08:06:32;100360.88;;;26.35;38.43
26112;BME280;13829;48.990;8.346;2022-09-02T08:08:59;100351.00;;;26.05;39.11
26112;BME280;13829;48.990;8.346;2022-09-02T08:11:26;100353.56;;;25.14;41.08
26112;BME280;13829;48.990;8.346;2022-09-02T08:13:55;100362.22;;;25.03;41.74
26112;BME280;13829;48.990;8.346;2022-09-02T08:16:22;100368.72;;;24.67;42.82
26112;BME280;13829;48.990;8.346;2022-09-02T08:18:48;100366.25;;;24.29;43.47
26112;BME280;13829;48.990;8.346;2022-09-02T08:21:15;100358.59;;;24.54;43.75
26112;BME280;13829;48.990;8.346;2022-09-02T08:23:43;100356.34;;;25.12;43.04
26112;BME280;13829;48.990;8.346;2022-09-02T08:26:11;100363.28;;;24.84;42.50
26112;BME280;13829;48.990;8.346;2022-09-02T08:28:38;100372.16;;;24.35;43.22
26112;BME280;13829;48.990;8.346;2022-09-02T08:31:06;100362.44;;;23.63;44.75
26112;BME280;13829;48.990;8.346;2022-09-02T08:33:33;100357.88;;;24.00;44.86
26112;BME280;13829;48.990;8.346;2022-09-02T08:36:06;100356.75;;;24.21;45.47
26112;BME280;13829;48.990;8.346;2022-09-02T08:38:34;100352.00;;;24.26;45.95
26112;BME280;13829;48.990;8.346;2022-09-02T08:41:02;100349.47;;;24.57;43.91
26112;BME280;13829;48.990;8.346;2022-09-02T08:43:40;100351.69;;;24.33;43.90
26112;BME280;13829;48.990;8.346;2022-09-02T08:46:13;100351.50;;;24.36;43.69
26112;BME280;13829;48.990;8.346;2022-09-02T08:48:48;100349.50;;;24.06;44.08
26112;BME280;13829;48.990;8.346;2022-09-02T08:51:24;100335.22;;;24.39;45.06
26112;BME280;13829;48.990;8.346;2022-09-02T08:53:57;100339.25;;;24.64;44.13
26112;BME280;13829;48.990;8.346;2022-09-02T08:56:26;100348.56;;;24.40;43.13
26112;BME280;13829;48.990;8.346;2022-09-02T08:58:54;100345.38;;;23.81;44.35
26112;BME280;13829;48.990;8.346;2022-09-02T09:01:36;100342.41;;;23.51;45.97
26112;BME280;13829;48.990;8.346;2022-09-02T09:04:18;100344.06;;;23.53;44.66
26112;BME280;13829;48.990;8.346;2022-09-02T09:07:12;100333.34;;;23.71;45.79
26112;BME280;13829;48.990;8.346;2022-09-02T09:10:02;100332.41;;;23.89;46.20
26112;BME280;13829;48.990;8.346;2022-09-02T09:13:14;100330.41;;;23.94;44.44
26112;BME280;13829;48.990;8.346;2022-09-02T09:15:52;100345.97;;;23.34;44.47
26112;BME280;13829;48.990;8.346;2022-09-02T09:18:32;100330.00;;;23.11;46.46
26112;BME280;13829;48.990;8.346;2022-09-02T09:21:03;100326.13;;;22.80;46.23
26112;BME280;13829;48.990;8.346;2022-09-02T09:23:35;100318.44;;;22.73;47.16
26112;BME280;13829;48.990;8.346;2022-09-02T09:26:09;100326.19;;;22.79;47.02
26112;BME280;13829;48.990;8.346;2022-09-02T09:28:39;100324.63;;;23.11;46.65
26112;BME280;13829;48.990;8.346;2022-09-02T09:31:11;100323.22;;;23.04;46.33
26112;BME280;13829;48.990;8.346;2022-09-02T09:33:54;100331.09;;;22.29;46.93
26112;BME280;13829;48.990;8.346;2022-09-02T09:36:48;100321.09;;;22.33;47.31
26112;BME280;13829;48.990;8.346;2022-09-02T09:39:23;100317.44;;;22.15;47.45
26112;BME280;13829;48.990;8.346;2022-09-02T09:41:53;100318.34;;;22.15;47.98
26112;BME280;13829;48.990;8.346;2022-09-02T09:44:37;100317.44;;;22.15;47.28
26112;BME280;13829;48.990;8.346;2022-09-02T09:47:08;100318.91;;;22.43;49.59
26112;BME280;13829;48.990;8.346;2022-09-02T09:49:37;100316.63;;;22.34;46.54
26112;BME280;13829;48.990;8.346;2022-09-02T09:52:05;100318.91;;;22.43;47.06
26112;BME280;13829;48.990;8.346;2022-09-02T09:54:32;100305.25;;;22.68;46.25
26112;BME280;13829;48.990;8.346;2022-09-02T09:57:16;100307.19;;;22.64;45.95
26112;BME280;13829;48.990;8.346;2022-09-02T09:59:47;100295.25;;;22.72;45.53
26112;BME280;13829;48.990;8.346;2022-09-02T10:02:20;100298.72;;;22.93;45.32
26112;BME280;13829;48.990;8.346;2022-09-02T10:04:50;100291.47;;;22.57;44.59
26112;BME280;13829;48.990;8.346;2022-09-02T10:07:35;100287.00;;;22.57;45.01
26112;BME280;13829;48.990;8.346;2022-09-02T10:10:16;100288.72;;;22.77;44.57
26112;BME280;13829;48.990;8.346;2022-09-02T10:12:46;100297.19;;;22.68;43.98
26112;BME280;13829;48.990;8.346;2022-09-02T10:15:15;100291.25;;;22.61;44.12
26112;BME280;13829;48.990;8.346;2022-09-02T10:17:55;100285.97;;;22.79;43.68
26112;BME280;13829;48.990;8.346;2022-09-02T10:20:42;100281.44;;;22.99;44.33
26112;BME280;13829;48.990;8.346;2022-09-02T10:23:36;100268.91;;;22.99;44.41
26112;BME280;13829;48.990;8.346;2022-09-02T10:26:18;100277.66;;;23.03;43.52
26112;BME280;13829;48.990;8.346;2022-09-02T10:32:34;100260.28;;;22.92;43.36
26112;BME280;13829;48.990;8.346;2022-09-02T10:35:12;100263.56;;;22.80;43.70
26112;BME280;13829;48.990;8.346;2022-09-02T10:38:03;100253.81;;;22.79;42.82
26112;BME280;13829;48.990;8.346;2022-09-02T10:40:38;100249.00;;;22.86;42.69
26112;BME280;13829;48.990;8.346;2022-09-02T10:43:14;100245.63;;;23.00;43.09
26112;BME280;13829;48.990;8.346;2022-09-02T10:45:57;100252.88;;;23.17;41.99
26112;BME280;13829;48.990;8.346;2022-09-02T10:48:43;100237.94;;;23.11;40.42
26112;BME280;13829;48.990;8.346;2022-09-02T10:51:21;100239.25;;;23.02;40.60
26112;BME280;13829;48.990;8.346;2022-09-02T10:54:16;100228.66;;;23.18;41.70
26112;BME280;13829;48.990;8.346;2022-09-02T10:56:52;100240.44;;;23.14;40.55
26112;BME280;13829;48.990;8.346;2022-09-02T10:59:30;100224.56;;;23.28;40.77
26112;BME280;13829;48.990;8.346;2022-09-02T11:02:06;100216.84;;;23.40;41.04
26112;BME280;13829;48.990;8.346;2022-09-02T11:04:43;100217.47;;;23.27;40.64
26112;BME280;13829;48.990;8.346;2022-09-02T11:07:18;100212.19;;;23.43;41.49
26112;BME280;13829;48.990;8.346;2022-09-02T11:09:53;100221.09;;;23.61;40.81
26112;BME280;13829;48.990;8.346;2022-09-02T11:12:30;100218.31;;;23.63;41.49
26112;BME280;13829;48.990;8.346;2022-09-02T11:15:09;100217.38;;;23.64;40.15
26112;BME280;13829;48.990;8.346;2022-09-02T11:17:46;100209.00;;;23.70;41.25
26112;BME280;13829;48.990;8.346;2022-09-02T11:20:28;100211.59;;;23.72;39.63
26112;BME280;13829;48.990;8.346;2022-09-02T11:23:02;100201.34;;;23.63;39.70
26112;BME280;13829;48.990;8.346;2022-09-02T11:25:40;100223.28;;;23.53;39.04
26112;BME280;13829;48.990;8.346;2022-09-02T11:28:24;100212.72;;;23.33;39.71
26112;BME280;13829;48.990;8.346;2022-09-02T11:31:03;100204.19;;;23.42;41.16
26112;BME280;13829;48.990;8.346;2022-09-02T11:33:47;100197.56;;;23.49;40.75
26112;BME280;13829;48.990;8.346;2022-09-02T11:36:17;100209.25;;;23.48;39.97
26112;BME280;13829;48.990;8.346;2022-09-02T11:38:51;100192.75;;;23.38;39.66
26112;BME280;13829;48.990;8.346;2022-09-02T11:41:50;100202.28;;;23.61;40.75
26112;BME280;13829;48.990;8.346;2022-09-02T11:47:48;100197.66;;;23.81;38.63
26112;BME280;13829;48.990;8.346;2022-09-02T11:50:49;100196.91;;;23.79;39.41
26112;BME280;13829;48.990;8.346;2022-09-02T11:53:23;100193.59;;;23.74;39.72
26112;BME280;13829;48.990;8.346;2022-09-02T11:55:55;100195.16;;;23.78;39.11
26112;BME280;13829;48.990;8.346;2022-09-02T11:58:35;100182.88;;;23.90;39.63
26112;BME280;13829;48.990;8.346;2022-09-02T12:01:25;100196.94;;;23.95;37.47
26112;BME280;13829;48.990;8.346;2022-09-02T12:04:02;100188.47;;;24.03;37.91
26112;BME280;13829;48.990;8.346;2022-09-02T12:06:30;100182.03;;;23.89;37.95
26112;BME280;13829;48.990;8.346;2022-09-02T12:09:06;100185.78;;;24.03;38.68
26112;BME280;13829;48.990;8.346;2022-09-02T12:11:49;100178.19;;;24.11;38.53
26112;BME280;13829;48.990;8.346;2022-09-02T12:17:02;100173.03;;;23.90;35.92
26112;BME280;13829;48.990;8.346;2022-09-02T12:19:41;100175.66;;;24.08;37.38
26112;BME280;13829;48.990;8.346;2022-09-02T12:22:26;100176.91;;;24.18;37.55
26112;BME280;13829;48.990;8.346;2022-09-02T12:24:58;100170.50;;;24.21;36.81
26112;BME280;13829;48.990;8.346;2022-09-02T12:27:33;100175.25;;;24.32;37.26
26112;BME280;13829;48.990;8.346;2022-09-02T12:30:06;100168.59;;;24.39;36.47
26112;BME280;13829;48.990;8.346;2022-09-02T12:33:09;100172.22;;;24.38;35.71
26112;BME280;13829;48.990;8.346;2022-09-02T12:35:55;100158.84;;;24.20;35.92
26112;BME280;13829;48.990;8.346;2022-09-02T12:38:27;100151.41;;;24.09;35.66
26112;BME280;13829;48.990;8.346;2022-09-02T12:41:06;100153.13;;;24.26;36.33
26112;BME280;13829;48.990;8.346;2022-09-02T12:43:52;100145.34;;;24.38;36.87
26112;BME280;13829;48.990;8.346;2022-09-02T12:46:47;100149.16;;;24.34;35.54
26112;BME280;13829;48.990;8.346;2022-09-02T12:49:35;100145.53;;;24.35;34.47
26112;BME280;13829;48.990;8.346;2022-09-02T12:52:05;100134.75;;;24.51;35.11
26112;BME280;13829;48.990;8.346;2022-09-02T12:54:41;100137.28;;;24.54;34.57
26112;BME280;13829;48.990;8.346;2022-09-02T12:57:09;100131.28;;;24.33;34.16
26112;BME280;13829;48.990;8.346;2022-09-02T12:59:39;100124.19;;;24.32;34.81
26112;BME280;13829;48.990;8.346;2022-09-02T13:02:29;100123.13;;;24.34;34.10
26112;BME280;13829;48.990;8.346;2022-09-02T13:05:17;100116.38;;;24.43;34.83
26112;BME280;13829;48.990;8.346;2022-09-02T13:11:42;100090.09;;;24.64;34.59
26112;BME280;13829;48.990;8.346;2022-09-02T13:14:46;100094.56;;;24.64;34.50
26112;BME280;13829;48.990;8.346;2022-09-02T13:17:30;100086.16;;;24.70;35.08
26112;BME280;13829;48.990;8.346;2022-09-02T13:20:36;100083.22;;;24.58;34.52
26112;BME280;13829;48.990;8.346;2022-09-02T13:26:34;100074.19;;;24.59;34.38
26112;BME280;13829;48.990;8.346;2022-09-02T13:30:00;100072.00;;;24.82;34.13
26112;BME280;13829;48.990;8.346;2022-09-02T13:32:31;100075.06;;;24.76;33.74
26112;BME280;13829;48.990;8.346;2022-09-02T13:35:03;100075.94;;;24.61;34.34
26112;BME280;13829;48.990;8.346;2022-09-02T13:37:36;100065.19;;;24.61;33.30